Time;durP1;ratioP1;P1;durP2;ratioP2;P2;SDS_P1;SDS_P2;PMS_P1;PMS_P2;Temp;Humidity;BMP_temperature;BMP_pressure;BME280_temperature;BME280_humidity;BME280_pressure;Samples;Min_cycle;Max_cycle;Signal;HPM_P1;HPM_P2
2022/04/25 00:00:01;;;;;;;8.00;2.90;;;;;;;;;;5069988;28;20048;-69
2022/04/25 00:02:40;;;;;;;7.35;3.08;;;;;;;;;;5070420;28;20400;-69
2022/04/25 00:05:10;;;;;;;5.80;2.67;;;;;;;;;;5016623;28;20045;-69
2022/04/25 00:07:41;;;;;;;6.38;2.53;;;;;;;;;;5053107;28;20520;-69
2022/04/25 00:10:13;;;;;;;8.27;3.55;;;;;;;;;;5069914;28;20060;-68
2022/04/25 00:12:44;;;;;;;6.95;3.20;;;;;;;;;;5020834;28;20539;-68
2022/04/25 00:15:15;;;;;;;6.57;3.50;;;;;;;;;;5053391;28;20056;-66
2022/04/25 00:17:45;;;;;;;7.25;3.42;;;;;;;;;;5029438;28;20539;-67
2022/04/25 00:20:16;;;;;;;7.95;3.10;;;;;;;;;;5029936;28;20065;-67
2022/04/25 00:22:47;;;;;;;6.38;3.22;;;;;;;;;;5018405;28;20045;-67
2022/04/25 00:25:18;;;;;;;7.13;2.97;;;;;;;;;;5010298;28;20061;-68
2022/04/25 00:27:48;;;;;;;7.40;3.10;;;;;;;;;;5010286;28;20049;-68
2022/04/25 00:30:19;;;;;;;7.05;3.15;;;;;;;;;;5010196;28;20096;-68
2022/04/25 00:32:50;;;;;;;9.52;3.85;;;;;;;;;;4977641;28;20457;-68
2022/04/25 00:35:21;;;;;;;5.95;2.85;;;;;;;;;;4993576;28;20054;-68
2022/04/25 00:37:53;;;;;;;5.45;2.63;;;;;;;;;;5010086;28;20062;-68
2022/04/25 00:40:24;;;;;;;6.95;2.42;;;;;;;;;;5010074;28;20046;-68
2022/04/25 00:42:55;;;;;;;10.88;2.92;;;;;;;;;;5031522;28;20057;-69
2022/04/25 00:45:26;;;;;;;6.47;2.67;;;;;;;;;;5010999;28;20056;-67
2022/04/25 00:47:58;;;;;;;7.07;2.55;;;;;;;;;;5020188;28;20053;-68
2022/04/25 00:50:29;;;;;;;6.15;2.85;;;;;;;;;;5029611;28;20050;-67
2022/04/25 00:53:00;;;;;;;12.00;3.35;;;;;;;;;;4996910;28;20401;-68
2022/04/25 00:55:31;;;;;;;7.70;3.00;;;;;;;;;;5039381;28;20056;-68
2022/04/25 00:58:02;;;;;;;5.03;2.33;;;;;;;;;;5056121;28;20056;-69
2022/04/25 01:00:33;;;;;;;10.00;2.92;;;;;;;;;;5090333;28;20056;-68
2022/04/25 01:03:05;;;;;;;9.27;3.03;;;;;;;;;;5093513;28;20048;-68
2022/04/25 01:05:36;;;;;;;5.38;2.45;;;;;;;;;;5060108;28;20557;-68
2022/04/25 01:08:08;;;;;;;5.30;2.47;;;;;;;;;;5093523;28;20064;-68
2022/04/25 01:10:38;;;;;;;7.70;3.15;;;;;;;;;;5093308;28;20044;-68
2022/04/25 01:13:11;;;;;;;7.82;2.72;;;;;;;;;;5060129;28;20059;-68
2022/04/25 01:15:42;;;;;;;6.30;2.53;;;;;;;;;;5036911;28;20056;-68
2022/04/25 01:18:13;;;;;;;7.38;2.70;;;;;;;;;;5032955;28;20060;-68
2022/04/25 01:20:44;;;;;;;6.82;3.30;;;;;;;;;;5032913;28;20064;-68
2022/04/25 01:29:02;;;;;;;5.95;3.20;;;;;;;;;;5050567;28;20049;-68
2022/04/25 01:31:33;;;;;;;9.93;3.15;;;;;;;;;;5052490;28;20527;-68
2022/04/25 01:34:04;;;;;;;5.88;3.00;;;;;;;;;;5036366;28;20412;-68
2022/04/25 01:36:35;;;;;;;6.60;2.95;;;;;;;;;;5020057;28;20496;-67
2022/04/25 01:39:06;;;;;;;8.15;3.22;;;;;;;;;;5036434;28;20421;-67
2022/04/25 01:41:36;;;;;;;6.10;2.88;;;;;;;;;;5052579;28;20052;-68
2022/04/25 01:44:07;;;;;;;10.02;3.00;;;;;;;;;;5035595;28;20060;-67
2022/04/25 01:46:39;;;;;;;9.40;2.88;;;;;;;;;;5035856;28;20369;-67
2022/04/25 01:49:09;;;;;;;;;;;;;;;;;;5036642;28;20060;-68
2022/04/25 01:51:42;;;;;;;6.40;2.55;;;;;;;;;;5052796;28;19935;-67
2022/04/25 01:54:14;;;;;;;13.60;2.92;;;;;;;;;;5053087;28;20059;-66
2022/04/25 01:56:44;;;;;;;6.85;3.00;;;;;;;;;;5017975;28;20056;-67
2022/04/25 01:59:15;;;;;;;7.93;3.00;;;;;;;;;;5012524;28;20075;-68
2022/04/25 02:01:46;;;;;;;14.68;3.10;;;;;;;;;;4992596;28;20066;-68
2022/04/25 02:04:21;;;;;;;6.68;2.90;;;;;;;;;;4976358;28;20066;-67
2022/04/25 02:06:52;;;;;;;6.07;3.00;;;;;;;;;;4992840;28;20055;-68
2022/04/25 02:09:24;;;;;;;5.53;2.88;;;;;;;;;;5012222;28;20065;-68
2022/04/25 02:11:54;;;;;;;6.05;2.90;;;;;;;;;;5012023;28;20453;-67
2022/04/25 02:14:25;;;;;;;7.95;2.97;;;;;;;;;;5028375;28;20053;-68
2022/04/25 02:16:58;;;;;;;7.03;2.83;;;;;;;;;;4972881;28;20441;-66
2022/04/25 02:19:30;;;;;;;7.30;3.22;;;;;;;;;;4973112;28;20827;-66
2022/04/25 02:22:00;;;;;;;8.70;2.88;;;;;;;;;;4973210;28;20055;-67
2022/04/25 02:24:31;;;;;;;6.57;3.08;;;;;;;;;;4953716;28;20167;-66
2022/04/25 02:27:03;;;;;;;5.78;2.88;;;;;;;;;;4953589;28;20059;-66
2022/04/25 02:29:40;;;;;;;9.50;3.13;;;;;;;;;;4953581;28;20059;-67
2022/04/25 02:32:12;;;;;;;7.57;2.65;;;;;;;;;;4937361;29;20059;-67
2022/04/25 02:34:43;;;;;;;5.65;2.75;;;;;;;;;;4991677;28;20402;-67
2022/04/25 02:37:15;;;;;;;12.52;3.10;;;;;;;;;;4963428;28;20066;-67
2022/04/25 02:39:47;;;;;;;11.13;3.03;;;;;;;;;;5025174;28;20053;-66
2022/04/25 02:42:18;;;;;;;7.45;3.08;;;;;;;;;;5031420;28;20383;-66
2022/04/25 02:44:48;;;;;;;7.22;3.08;;;;;;;;;;5031546;28;20617;-66
2022/04/25 02:47:19;;;;;;;8.45;3.25;;;;;;;;;;5031673;28;20480;-66
2022/04/25 02:49:50;;;;;;;8.35;3.30;;;;;;;;;;5031310;28;20065;-67
2022/04/25 02:52:20;;;;;;;7.53;3.17;;;;;;;;;;5031427;28;20540;-66
2022/04/25 02:54:51;;;;;;;9.00;3.38;;;;;;;;;;5055722;28;20052;-67
2022/04/25 02:57:21;;;;;;;10.18;3.10;;;;;;;;;;5031189;28;20520;-67
2022/04/25 02:59:52;;;;;;;7.00;3.47;;;;;;;;;;5015271;28;20421;-67
2022/04/25 03:02:23;;;;;;;7.28;3.15;;;;;;;;;;5026570;28;20052;-67
2022/04/25 03:04:54;;;;;;;6.88;2.90;;;;;;;;;;5050969;28;20056;-67
2022/04/25 03:07:25;;;;;;;7.40;3.40;;;;;;;;;;5050655;28;20045;-67
2022/04/25 03:09:55;;;;;;;9.32;2.85;;;;;;;;;;5034632;28;20049;-67
2022/04/25 03:12:26;;;;;;;7.63;3.22;;;;;;;;;;5034789;28;20057;-67
2022/04/25 03:14:56;;;;;;;10.00;3.50;;;;;;;;;;5050769;28;20186;-67
2022/04/25 03:17:27;;;;;;;6.32;2.72;;;;;;;;;;5034028;28;20063;-67
2022/04/25 03:19:58;;;;;;;11.45;3.13;;;;;;;;;;5050912;28;20053;-67
2022/04/25 03:22:28;;;;;;;9.73;2.80;;;;;;;;;;5050429;28;20056;-67
2022/04/25 03:24:59;;;;;;;12.80;3.70;;;;;;;;;;5017545;28;20076;-68
2022/04/25 03:27:30;;;;;;;8.35;3.00;;;;;;;;;;5011041;28;20057;-67
2022/04/25 03:30:00;;;;;;;8.80;3.63;;;;;;;;;;5010852;28;20050;-66
2022/04/25 03:32:32;;;;;;;7.55;3.30;;;;;;;;;;4975159;28;20046;-67
2022/04/25 03:35:03;;;;;;;12.38;4.43;;;;;;;;;;5001460;28;20057;-67
2022/04/25 03:37:36;;;;;;;9.02;4.15;;;;;;;;;;5010933;28;20062;-67
2022/04/25 03:40:09;;;;;;;14.05;4.03;;;;;;;;;;5043508;28;20428;-67
2022/04/25 03:42:43;;;;;;;8.95;4.45;;;;;;;;;;5070274;28;20392;-67
2022/04/25 03:45:18;;;;;;;8.90;4.05;;;;;;;;;;5070387;28;20064;-67
2022/04/25 03:47:49;;;;;;;8.57;4.15;;;;;;;;;;5070480;28;20060;-67
2022/04/25 03:50:19;;;;;;;11.75;4.20;;;;;;;;;;5070186;28;20504;-67
2022/04/25 03:52:50;;;;;;;11.60;4.25;;;;;;;;;;5049959;28;20096;-67
2022/04/25 03:58:11;;;;;;;9.73;3.83;;;;;;;;;;4997111;28;20052;-67
2022/04/25 04:00:42;;;;;;;16.30;4.82;;;;;;;;;;5029899;28;20053;-67
2022/04/25 04:03:14;;;;;;;11.77;4.43;;;;;;;;;;5030366;28;20056;-68
2022/04/25 04:05:50;;;;;;;11.95;5.03;;;;;;;;;;5030068;28;20065;-67
2022/04/25 04:08:21;;;;;;;10.02;4.18;;;;;;;;;;5014447;28;20057;-67
2022/04/25 04:10:51;;;;;;;12.50;4.40;;;;;;;;;;5025559;28;20050;-67
2022/04/25 04:13:24;;;;;;;11.00;4.95;;;;;;;;;;4990595;28;20054;-68
2022/04/25 04:15:56;;;;;;;11.15;4.93;;;;;;;;;;4990524;28;20065;-67
2022/04/25 04:18:28;;;;;;;8.88;4.55;;;;;;;;;;4942603;28;20391;-67
2022/04/25 04:20:59;;;;;;;11.23;4.60;;;;;;;;;;4942476;28;20065;-68
2022/04/25 04:23:35;;;;;;;10.32;3.85;;;;;;;;;;4938776;28;20539;-68
2022/04/25 04:26:05;;;;;;;9.60;4.53;;;;;;;;;;4916884;29;20514;-68
2022/04/25 04:28:36;;;;;;;9.50;4.20;;;;;;;;;;4917232;29;20059;-68
2022/04/25 04:31:07;;;;;;;9.57;4.57;;;;;;;;;;4932614;29;20629;-67
2022/04/25 04:33:38;;;;;;;10.60;4.32;;;;;;;;;;4932952;29;20389;-68
2022/04/25 04:36:17;;;;;;;9.65;4.57;;;;;;;;;;4948506;29;20062;-68
2022/04/25 04:38:48;;;;;;;8.68;4.50;;;;;;;;;;4955552;29;20058;-68
2022/04/25 04:41:19;;;;;;;9.45;4.32;;;;;;;;;;4955556;29;20058;-68
2022/04/25 04:43:49;;;;;;;13.43;4.72;;;;;;;;;;4955584;29;20107;-68
2022/04/25 04:46:20;;;;;;;10.52;4.28;;;;;;;;;;4955378;29;20055;-68
2022/04/25 04:48:51;;;;;;;11.95;4.25;;;;;;;;;;4968037;28;20446;-68
2022/04/25 04:51:22;;;;;;;8.85;3.55;;;;;;;;;;5012683;28;20054;-68
2022/04/25 04:53:52;;;;;;;10.48;3.45;;;;;;;;;;5033661;28;20049;-68
2022/04/25 04:56:22;;;;;;;11.50;3.60;;;;;;;;;;5000655;28;20069;-68
2022/04/25 04:58:54;;;;;;;7.85;3.33;;;;;;;;;;5033510;28;20045;-68
2022/04/25 05:01:28;;;;;;;7.15;3.05;;;;;;;;;;5033125;28;20061;-68
2022/04/25 05:03:59;;;;;;;8.30;3.45;;;;;;;;;;5033394;28;20072;-69
2022/04/25 05:06:30;;;;;;;9.15;3.97;;;;;;;;;;5033956;28;20567;-69
2022/04/25 05:09:01;;;;;;;10.07;3.42;;;;;;;;;;5060342;28;20056;-69
2022/04/25 05:11:32;;;;;;;7.22;3.25;;;;;;;;;;5113605;28;20047;-68
2022/04/25 05:14:09;;;;;;;7.15;3.17;;;;;;;;;;5113900;28;20047;-68
2022/04/25 05:16:40;;;;;;;8.27;3.22;;;;;;;;;;5113849;28;20820;-68
2022/04/25 05:19:11;;;;;;;6.80;2.72;;;;;;;;;;5114041;28;20048;-68
2022/04/25 05:21:42;;;;;;;9.00;3.45;;;;;;;;;;5113351;28;20047;-69
2022/04/25 05:24:13;;;;;;;6.78;2.72;;;;;;;;;;5097366;28;20051;-69
2022/04/25 05:26:43;;;;;;;5.95;2.78;;;;;;;;;;5113481;28;20055;-68
2022/04/25 05:29:17;;;;;;;8.35;2.80;;;;;;;;;;5072801;28;20076;-68
2022/04/25 05:31:51;;;;;;;6.60;2.70;;;;;;;;;;5073003;28;20049;-69
2022/04/25 05:34:34;;;;;;;5.05;2.28;;;;;;;;;;5058463;28;20057;-69
2022/04/25 05:37:05;;;;;;;9.13;3.22;;;;;;;;;;5073062;28;20052;-69
2022/04/25 05:39:36;;;;;;;6.80;2.50;;;;;;;;;;5072689;28;20879;-68
2022/04/25 05:42:07;;;;;;;5.88;2.50;;;;;;;;;;5072866;28;20052;-68
2022/04/25 05:44:38;;;;;;;5.22;2.65;;;;;;;;;;5023073;28;20056;-69
2022/04/25 05:47:08;;;;;;;4.50;2.10;;;;;;;;;;5071909;28;20053;-68
2022/04/25 05:52:28;;;;;;;6.82;2.40;;;;;;;;;;5072733;28;20064;-68
2022/04/25 05:54:59;;;;;;;6.85;2.60;;;;;;;;;;5012444;28;20053;-69
2022/04/25 05:57:30;;;;;;;5.88;2.45;;;;;;;;;;4957301;28;20046;-68
2022/04/25 06:00:00;;;;;;;5.13;2.28;;;;;;;;;;4973232;28;20055;-68
2022/04/25 06:02:42;;;;;;;9.25;2.53;;;;;;;;;;4973544;28;20081;-68
2022/04/25 06:05:15;;;;;;;;;;;;;;;;;;4957473;28;20454;-68
2022/04/25 06:07:47;;;;;;;5.28;2.20;;;;;;;;;;4990320;28;20305;-68
2022/04/25 06:10:20;;;;;;;4.50;2.38;;;;;;;;;;4992406;28;20091;-68
2022/04/25 06:12:53;;;;;;;7.65;2.55;;;;;;;;;;4993016;28;20055;-68
2022/04/25 06:15:25;;;;;;;5.10;2.38;;;;;;;;;;4992995;28;20069;-68
2022/04/25 06:17:56;;;;;;;5.22;2.55;;;;;;;;;;4992675;28;20388;-68
2022/04/25 06:20:30;;;;;;;5.43;2.38;;;;;;;;;;4972619;28;20065;-68
2022/04/25 06:23:04;;;;;;;4.15;2.42;;;;;;;;;;4973054;28;20519;-68
2022/04/25 06:25:38;;;;;;;4.65;2.65;;;;;;;;;;4925422;28;20403;-68
2022/04/25 06:28:09;;;;;;;4.15;2.58;;;;;;;;;;4972939;28;20050;-68
2022/04/25 06:30:40;;;;;;;7.15;2.40;;;;;;;;;;4972953;28;20063;-69
2022/04/25 06:33:12;;;;;;;5.40;2.20;;;;;;;;;;4987188;28;20054;-68
2022/04/25 06:35:43;;;;;;;4.90;2.30;;;;;;;;;;5021349;28;20137;-69
2022/04/25 06:38:15;;;;;;;5.32;2.65;;;;;;;;;;5046788;28;20053;-68
2022/04/25 06:40:46;;;;;;;;;;;;;;;;;;5018666;28;20049;-69
2022/04/25 06:43:17;;;;;;;5.65;2.00;;;;;;;;;;5044784;28;20021;-69
2022/04/25 06:45:50;;;;;;;4.72;2.30;;;;;;;;;;5031620;28;20061;-68
2022/04/25 06:48:21;;;;;;;5.38;3.15;;;;;;;;;;4998916;28;20061;-69
2022/04/25 06:50:53;;;;;;;5.85;2.47;;;;;;;;;;5031307;28;20082;-69
2022/04/25 06:53:24;;;;;;;6.05;2.65;;;;;;;;;;5031552;28;20053;-69
2022/04/25 06:55:55;;;;;;;6.03;2.40;;;;;;;;;;5031224;28;20057;-68
2022/04/25 06:58:26;;;;;;;5.80;2.50;;;;;;;;;;4984471;28;20049;-69
2022/04/25 07:00:57;;;;;;;4.45;2.30;;;;;;;;;;4998114;28;20061;-69
2022/04/25 07:03:32;;;;;;;6.82;2.35;;;;;;;;;;5031290;28;20524;-69
2022/04/25 07:06:03;;;;;;;5.45;2.15;;;;;;;;;;5031207;28;20049;-68
2022/04/25 07:08:34;;;;;;;5.20;2.33;;;;;;;;;;5031139;28;20068;-68
2022/04/25 07:11:04;;;;;;;6.10;2.05;;;;;;;;;;5030758;28;20054;-68
2022/04/25 07:13:35;;;;;;;6.13;2.38;;;;;;;;;;5031067;28;20064;-68
2022/04/25 07:16:06;;;;;;;5.55;2.00;;;;;;;;;;4974998;28;20057;-69
2022/04/25 07:18:37;;;;;;;5.35;2.40;;;;;;;;;;4991525;28;20390;-69
2022/04/25 07:29:55;;;;;;;4.10;1.90;;;;;;;;;;5030812;28;20072;-68
2022/04/25 07:32:26;;;;;;;5.50;2.10;;;;;;;;;;5010732;28;20414;-68
2022/04/25 07:34:57;;;;;;;5.25;2.17;;;;;;;;;;5014385;28;20061;-68
2022/04/25 07:37:27;;;;;;;5.95;2.15;;;;;;;;;;5070384;28;20161;-68
2022/04/25 07:39:58;;;;;;;5.30;1.98;;;;;;;;;;5070338;28;20049;-68
2022/04/25 07:42:29;;;;;;;4.82;2.05;;;;;;;;;;5070449;28;20040;-68
2022/04/25 07:45:00;;;;;;;5.72;1.77;;;;;;;;;;5070623;28;20061;-68
2022/04/25 07:47:32;;;;;;;3.55;1.77;;;;;;;;;;5053659;28;20052;-68
2022/04/25 07:50:04;;;;;;;4.18;2.17;;;;;;;;;;5070326;28;20052;-68
2022/04/25 07:52:34;;;;;;;7.03;2.35;;;;;;;;;;5038334;28;20048;-68
2022/04/25 07:55:07;;;;;;;6.63;1.98;;;;;;;;;;5090560;28;20175;-68
2022/04/25 07:57:38;;;;;;;5.50;2.00;;;;;;;;;;5017445;28;20055;-68
2022/04/25 08:00:08;;;;;;;5.68;2.03;;;;;;;;;;5049915;28;20071;-68
2022/04/25 08:02:39;;;;;;;5.35;1.98;;;;;;;;;;5029871;28;20049;-68
2022/04/25 08:05:10;;;;;;;3.78;2.00;;;;;;;;;;5014168;28;20529;-68
2022/04/25 08:07:40;;;;;;;5.78;1.90;;;;;;;;;;5030049;28;20053;-68
2022/04/25 08:10:11;;;;;;;5.03;2.00;;;;;;;;;;5040851;28;20061;-68
2022/04/25 08:18:20;;;;;;;4.00;1.95;;;;;;;;;;5030149;28;20065;-68
2022/04/25 08:20:53;;;;;;;4.18;2.20;;;;;;;;;;4981037;28;20056;-68
2022/04/25 08:23:23;;;;;;;5.68;2.05;;;;;;;;;;5029854;28;20458;-68
2022/04/25 08:25:53;;;;;;;3.83;1.80;;;;;;;;;;5030246;28;20053;-69
2022/04/25 08:28:25;;;;;;;8.07;2.50;;;;;;;;;;5029944;28;20061;-68
2022/04/25 08:31:15;;;;;;;4.03;1.90;;;;;;;;;;5029903;28;20072;-69
2022/04/25 08:33:49;;;;;;;5.57;1.85;;;;;;;;;;5030035;28;20636;-69
2022/04/25 08:36:20;;;;;;;4.60;1.70;;;;;;;;;;5032538;28;20045;-68
2022/04/25 08:38:51;;;;;;;5.55;2.00;;;;;;;;;;5049869;28;20496;-68
2022/04/25 08:41:29;;;;;;;3.70;1.85;;;;;;;;;;5087701;28;20052;-68
2022/04/25 08:44:00;;;;;;;2.72;1.48;;;;;;;;;;5073667;28;20055;-68
2022/04/25 08:46:34;;;;;;;3.55;1.98;;;;;;;;;;5089909;28;20044;-68
2022/04/25 08:49:05;;;;;;;3.83;2.00;;;;;;;;;;5073836;28;20052;-68
2022/04/25 08:51:40;;;;;;;4.70;2.13;;;;;;;;;;5089888;28;20048;-69
2022/04/25 08:54:11;;;;;;;3.50;1.73;;;;;;;;;;5075409;28;20067;-69
2022/04/25 08:56:42;;;;;;;4.07;2.10;;;;;;;;;;5072554;28;20051;-69
2022/04/25 08:59:14;;;;;;;4.97;2.22;;;;;;;;;;5089851;28;20072;-69
2022/04/25 09:01:45;;;;;;;5.20;1.90;;;;;;;;;;5003666;28;20564;-69
2022/04/25 09:04:15;;;;;;;4.57;1.67;;;;;;;;;;5019867;28;20550;-68
2022/04/25 09:06:49;;;;;;;6.35;2.03;;;;;;;;;;5069435;28;20056;-69
2022/04/25 09:09:19;;;;;;;6.00;1.98;;;;;;;;;;5069589;28;20056;-69
2022/04/25 09:14:40;;;;;;;7.90;2.25;;;;;;;;;;5036288;28;20052;-69
2022/04/25 09:17:12;;;;;;;5.93;2.03;;;;;;;;;;5069410;28;20067;-68
2022/04/25 09:19:43;;;;;;;4.22;1.67;;;;;;;;;;5029224;28;20151;-69
2022/04/25 09:22:30;;;;;;;4.45;1.92;;;;;;;;;;5031651;28;20064;-69
2022/04/25 09:25:12;;;;;;;4.20;1.73;;;;;;;;;;5033107;28;20148;-68
2022/04/25 09:28:12;;;;;;;4.80;1.90;;;;;;;;;;5033165;28;20065;-69
2022/04/25 09:31:00;;;;;;;5.35;2.10;;;;;;;;;;4997788;28;20042;-69
2022/04/25 09:33:31;;;;;;;4.15;2.60;;;;;;;;;;5016343;28;20061;-69
2022/04/25 09:36:04;;;;;;;3.90;1.75;;;;;;;;;;5033182;28;20068;-69
2022/04/25 09:38:37;;;;;;;6.53;2.10;;;;;;;;;;5013116;28;20050;-68
2022/04/25 09:41:09;;;;;;;4.05;2.10;;;;;;;;;;5012782;28;20057;-68
2022/04/25 09:43:42;;;;;;;7.32;2.53;;;;;;;;;;5012567;28;20046;-68
2022/04/25 09:46:15;;;;;;;3.55;1.98;;;;;;;;;;5012979;28;20057;-68
2022/04/25 09:49:05;;;;;;;4.80;2.35;;;;;;;;;;4997144;28;20458;-67
2022/04/25 09:51:37;;;;;;;7.38;1.95;;;;;;;;;;5012786;28;20498;-68
2022/04/25 09:54:09;;;;;;;5.22;2.38;;;;;;;;;;4996688;28;20061;-67
2022/04/25 09:56:42;;;;;;;4.45;1.98;;;;;;;;;;5017049;28;20053;-67
2022/04/25 09:59:14;;;;;;;5.85;2.03;;;;;;;;;;5012323;28;20057;-68
2022/04/25 10:01:45;;;;;;;7.00;1.92;;;;;;;;;;5031586;28;20049;-68
2022/04/25 10:04:37;;;;;;;7.80;1.90;;;;;;;;;;4992435;28;20541;-68
2022/04/25 10:07:07;;;;;;;3.97;1.83;;;;;;;;;;4954010;28;20542;-68
2022/04/25 10:09:40;;;;;;;4.00;1.83;;;;;;;;;;4973392;28;20061;-68
2022/04/25 10:12:10;;;;;;;3.55;1.80;;;;;;;;;;4973547;28;20062;-68
2022/04/25 10:14:42;;;;;;;5.35;1.85;;;;;;;;;;4973317;28;20062;-68
2022/04/25 10:17:15;;;;;;;7.53;2.22;;;;;;;;;;4970633;28;20152;-68
2022/04/25 10:19:47;;;;;;;4.30;2.00;;;;;;;;;;4992129;28;20053;-68
2022/04/25 10:22:19;;;;;;;4.70;1.98;;;;;;;;;;4976638;28;20070;-68
2022/04/25 10:24:49;;;;;;;;;;;;;;;;;;4992447;28;20050;-68
2022/04/25 10:27:27;;;;;;;4.13;2.00;;;;;;;;;;4972630;28;20036;-68
2022/04/25 10:30:04;;;;;;;4.50;2.10;;;;;;;;;;4934507;29;20502;-68
2022/04/25 10:32:35;;;;;;;5.45;2.38;;;;;;;;;;4883333;29;20052;-68
2022/04/25 10:35:12;;;;;;;10.15;2.15;;;;;;;;;;4880592;29;20056;-68
2022/04/25 10:37:44;;;;;;;4.85;2.13;;;;;;;;;;4844898;29;20080;-68
2022/04/25 10:44:10;;;;;;;5.63;2.47;;;;;;;;;;4875275;29;20074;-68
2022/04/25 10:46:07;;;;;;;6.18;2.75;;;;;;;;;;4896002;29;20087;-68
2022/04/25 10:49:07;;;;;;;4.82;2.78;;;;;;;;;;4896427;29;20053;-68
2022/04/25 10:51:41;;;;;;;10.20;2.75;;;;;;;;;;4898906;29;20052;-68
2022/04/25 10:54:14;;;;;;;8.55;3.95;;;;;;;;;;4915253;29;20459;-68
2022/04/25 10:57:06;;;;;;;10.18;4.88;;;;;;;;;;4924734;28;20495;-68
2022/04/25 10:59:39;;;;;;;8.20;4.93;;;;;;;;;;4953135;28;20055;-68
2022/04/25 11:02:28;;;;;;;9.60;4.38;;;;;;;;;;4934899;28;20054;-68
2022/04/25 11:05:11;;;;;;;11.18;4.75;;;;;;;;;;4912225;28;20561;-68
2022/04/25 11:07:42;;;;;;;10.07;4.38;;;;;;;;;;4953298;28;20051;-68
2022/04/25 11:10:49;;;;;;;10.52;5.78;;;;;;;;;;4953061;29;20082;-68
2022/04/25 11:13:26;;;;;;;12.30;5.35;;;;;;;;;;4997115;28;20062;-68
2022/04/25 11:16:01;;;;;;;8.35;4.75;;;;;;;;;;4982092;28;20061;-68
2022/04/25 11:18:41;;;;;;;8.02;4.13;;;;;;;;;;5031130;28;20045;-68
2022/04/25 11:21:16;;;;;;;11.82;5.05;;;;;;;;;;5030834;28;20046;-67
2022/04/25 11:23:49;;;;;;;7.93;3.90;;;;;;;;;;5050780;28;20056;-68
2022/04/25 11:26:25;;;;;;;8.75;3.70;;;;;;;;;;5070753;28;20059;-68
2022/04/25 11:28:56;;;;;;;9.10;4.18;;;;;;;;;;5077704;28;20400;-68
2022/04/25 11:31:28;;;;;;;10.38;5.57;;;;;;;;;;5090682;28;20048;-68
2022/04/25 11:34:03;;;;;;;;;;;;;;;;;;5041201;28;20531;-68
2022/04/25 11:36:44;;;;;;;9.55;4.07;;;;;;;;;;5090712;28;19943;-68
2022/04/25 11:42:09;;;;;;;19.17;9.48;;;;;;;;;;5096747;28;20074;-68
2022/04/25 11:44:41;;;;;;;10.63;3.92;;;;;;;;;;5049338;28;20049;-67
2022/04/25 11:47:11;;;;;;;16.15;7.05;;;;;;;;;;5010632;28;20434;-68
2022/04/25 11:49:43;;;;;;;12.30;6.07;;;;;;;;;;5010767;28;20105;-68
2022/04/25 11:52:20;;;;;;;9.80;4.78;;;;;;;;;;5010578;28;20066;-68
2022/04/25 11:54:51;;;;;;;8.13;3.58;;;;;;;;;;5010786;28;20058;-69
2022/04/25 11:57:21;;;;;;;9.10;4.10;;;;;;;;;;4990771;28;20061;-68
2022/04/25 12:00:11;;;;;;;7.35;3.15;;;;;;;;;;4990697;28;20058;-68
2022/04/25 12:02:43;;;;;;;17.73;8.15;;;;;;;;;;4990676;28;20513;-68
2022/04/25 12:05:26;;;;;;;28.52;16.77;;;;;;;;;;4974995;28;20054;-68
2022/04/25 12:16:29;;;;;;;6.68;3.00;;;;;;;;;;4998246;28;20054;-68
2022/04/25 12:19:06;;;;;;;6.43;3.15;;;;;;;;;;5049361;28;20056;-67
2022/04/25 12:21:40;;;;;;;10.25;4.40;;;;;;;;;;5053874;28;20077;-67
2022/04/25 12:24:21;;;;;;;6.95;2.97;;;;;;;;;;5036531;28;20052;-68
2022/04/25 12:26:52;;;;;;;5.60;2.58;;;;;;;;;;5069965;28;20602;-68
2022/04/25 12:29:22;;;;;;;5.70;2.10;;;;;;;;;;5069953;28;20061;-67
2022/04/25 12:31:54;;;;;;;7.95;2.50;;;;;;;;;;5069915;28;20063;-67
2022/04/25 12:34:33;;;;;;;8.27;3.92;;;;;;;;;;5069624;28;20495;-67
2022/04/25 12:37:05;;;;;;;10.05;4.00;;;;;;;;;;5010300;28;20426;-67
2022/04/25 12:39:35;;;;;;;4.47;2.20;;;;;;;;;;5090220;28;20048;-67
2022/04/25 12:42:07;;;;;;;3.75;1.70;;;;;;;;;;5089913;28;20055;-67
2022/04/25 12:44:38;;;;;;;4.10;2.13;;;;;;;;;;5089795;28;20056;-67
2022/04/25 12:47:11;;;;;;;3.80;1.90;;;;;;;;;;5089723;28;20063;-67
2022/04/25 12:49:47;;;;;;;5.35;1.90;;;;;;;;;;5040215;28;20052;-67
2022/04/25 12:52:17;;;;;;;4.22;1.90;;;;;;;;;;5089895;28;20048;-65
2022/04/25 12:54:50;;;;;;;5.03;1.60;;;;;;;;;;5089846;28;20040;-66
2022/04/25 12:57:24;;;;;;;3.95;1.63;;;;;;;;;;5110144;28;20536;-66
2022/04/25 12:59:54;;;;;;;9.05;1.95;;;;;;;;;;5073076;28;20055;-66
2022/04/25 13:02:32;;;;;;;4.47;1.80;;;;;;;;;;5056858;28;20059;-65
2022/04/25 13:05:13;;;;;;;4.13;1.60;;;;;;;;;;5073333;28;20072;-66
2022/04/25 13:07:48;;;;;;;2.72;1.40;;;;;;;;;;5057189;28;20048;-66
2022/04/25 13:10:22;;;;;;;4.03;1.55;;;;;;;;;;5053085;28;20522;-66
2022/04/25 13:12:56;;;;;;;2.22;1.33;;;;;;;;;;4996776;28;20058;-66
2022/04/25 13:15:31;;;;;;;5.43;1.60;;;;;;;;;;4961609;28;20084;-66
2022/04/25 13:18:03;;;;;;;2.83;1.38;;;;;;;;;;4989831;28;20184;-66
2022/04/25 13:20:35;;;;;;;3.35;1.48;;;;;;;;;;4993747;28;20058;-66
2022/04/25 13:23:07;;;;;;;3.00;1.48;;;;;;;;;;4993402;28;20054;-66
2022/04/25 13:25:37;;;;;;;4.25;1.30;;;;;;;;;;4973802;28;20070;-66
2022/04/25 13:28:09;;;;;;;3.55;2.33;;;;;;;;;;4974021;28;20058;-66
2022/04/25 13:30:39;;;;;;;2.20;1.30;;;;;;;;;;4973994;28;20505;-65
2022/04/25 13:33:10;;;;;;;2.80;1.25;;;;;;;;;;4926411;28;20058;-65
2022/04/25 13:35:42;;;;;;;1.85;1.23;;;;;;;;;;4993387;28;20058;-66
2022/04/25 13:38:15;;;;;;;4.57;1.40;;;;;;;;;;5008298;28;20053;-66
2022/04/25 13:40:47;;;;;;;1.95;1.13;;;;;;;;;;5012947;28;20050;-66
2022/04/25 13:43:18;;;;;;;4.57;1.30;;;;;;;;;;5021498;28;20053;-67
2022/04/25 13:45:49;;;;;;;2.55;1.20;;;;;;;;;;5052600;28;20076;-66
2022/04/25 13:48:20;;;;;;;2.10;1.10;;;;;;;;;;5052475;28;20065;-66
2022/04/25 13:50:50;;;;;;;1.98;1.20;;;;;;;;;;5052453;28;20072;-66
2022/04/25 13:53:21;;;;;;;6.95;1.35;;;;;;;;;;5053605;28;20515;-66
2022/04/25 13:55:52;;;;;;;3.15;1.10;;;;;;;;;;5010268;28;20048;-67
2022/04/25 13:58:24;;;;;;;3.70;1.13;;;;;;;;;;5032189;28;20053;-65
2022/04/25 14:00:55;;;;;;;3.17;1.27;;;;;;;;;;4999532;28;20425;-65
2022/04/25 14:03:27;;;;;;;1.95;1.05;;;;;;;;;;5055221;28;20080;-67
2022/04/25 14:05:58;;;;;;;2.03;1.10;;;;;;;;;;5022709;28;20056;-66
2022/04/25 14:08:28;;;;;;;1.75;0.93;;;;;;;;;;5055175;28;20040;-65
2022/04/25 14:11:00;;;;;;;3.80;1.20;;;;;;;;;;5072232;28;20056;-66
2022/04/25 14:13:30;;;;;;;2.15;1.02;;;;;;;;;;5067808;28;20063;-65
2022/04/25 14:16:01;;;;;;;2.88;1.40;;;;;;;;;;5092079;28;20164;-64
2022/04/25 14:18:32;;;;;;;1.75;1.35;;;;;;;;;;5092313;28;20147;-65
2022/04/25 14:21:06;;;;;;;1.92;1.20;;;;;;;;;;5051652;28;20049;-67
2022/04/25 14:23:38;;;;;;;4.65;1.40;;;;;;;;;;5051711;28;20065;-66
2022/04/25 14:26:09;;;;;;;3.25;1.10;;;;;;;;;;5031793;28;20045;-64
2022/04/25 14:28:40;;;;;;;1.95;0.85;;;;;;;;;;5015187;28;20050;-63
2022/04/25 14:31:31;;;;;;;1.60;0.88;;;;;;;;;;5031960;28;20499;-67
2022/04/25 14:34:02;;;;;;;2.08;1.00;;;;;;;;;;5031829;28;20064;-67
2022/04/25 14:36:32;;;;;;;2.08;1.10;;;;;;;;;;5044149;28;20056;-66
2022/04/25 14:39:03;;;;;;;2.95;1.00;;;;;;;;;;5031287;28;20061;-67
2022/04/25 14:41:34;;;;;;;1.70;1.00;;;;;;;;;;4959937;28;20473;-66
2022/04/25 14:44:05;;;;;;;2.58;1.02;;;;;;;;;;4959927;28;20054;-63
2022/04/25 14:46:37;;;;;;;2.42;1.00;;;;;;;;;;4975845;28;20065;-66
2022/04/25 14:49:08;;;;;;;2.40;0.80;;;;;;;;;;4992355;28;20062;-67
2022/04/25 14:54:34;;;;;;;2.45;0.90;;;;;;;;;;4992174;28;20058;-64
2022/04/25 14:57:05;;;;;;;1.30;0.90;;;;;;;;;;4992103;28;20387;-64
2022/04/25 14:59:37;;;;;;;1.48;0.73;;;;;;;;;;5026168;28;20061;-66
2022/04/25 15:02:08;;;;;;;2.97;0.80;;;;;;;;;;5030902;28;20561;-64
2022/04/25 15:04:39;;;;;;;1.85;0.95;;;;;;;;;;5051127;28;20049;-65
2022/04/25 15:07:09;;;;;;;2.97;0.73;;;;;;;;;;5051099;28;20096;-66
2022/04/25 15:09:42;;;;;;;1.60;1.00;;;;;;;;;;5050983;28;20060;-65
2022/04/25 15:12:13;;;;;;;3.08;0.80;;;;;;;;;;5011025;28;20077;-65
2022/04/25 15:14:44;;;;;;;2.42;0.80;;;;;;;;;;4994965;28;20062;-65
2022/04/25 15:17:15;;;;;;;1.45;1.35;;;;;;;;;;5005751;28;20421;-65
2022/04/25 15:19:45;;;;;;;3.53;0.73;;;;;;;;;;5024625;28;20057;-65
2022/04/25 15:22:16;;;;;;;1.52;0.90;;;;;;;;;;5030379;28;20172;-65
2022/04/25 15:24:48;;;;;;;1.10;0.77;;;;;;;;;;5030406;28;20053;-64
2022/04/25 15:27:19;;;;;;;2.13;0.80;;;;;;;;;;4997962;28;20199;-66
2022/04/25 15:29:50;;;;;;;1.98;0.80;;;;;;;;;;5030588;28;20065;-66
2022/04/25 15:32:21;;;;;;;1.05;0.80;;;;;;;;;;4965643;28;20057;-65
2022/04/25 15:34:52;;;;;;;2.65;0.90;;;;;;;;;;5030531;28;20057;-64
2022/04/25 15:37:22;;;;;;;1.92;0.90;;;;;;;;;;5030302;28;20058;-64
2022/04/25 15:39:53;;;;;;;1.48;0.90;;;;;;;;;;5030615;28;20049;-65
2022/04/25 15:42:24;;;;;;;1.33;0.70;;;;;;;;;;5025047;28;20444;-65
2022/04/25 15:44:55;;;;;;;1.48;0.80;;;;;;;;;;5050354;28;20049;-65
2022/04/25 15:47:26;;;;;;;2.38;0.70;;;;;;;;;;5017292;28;20049;-62
2022/04/25 15:49:56;;;;;;;1.58;0.93;;;;;;;;;;5061500;28;20057;-65
2022/04/25 15:52:27;;;;;;;3.67;0.73;;;;;;;;;;5036884;28;20064;-63
2022/04/25 15:57:49;;;;;;;1.40;0.68;;;;;;;;;;5112865;28;20035;-64
2022/04/25 16:00:25;;;;;;;3.20;0.85;;;;;;;;;;5112865;28;20043;-63
2022/04/25 16:02:57;;;;;;;0.85;0.63;;;;;;;;;;5093925;28;20052;-62